createdAt,value
2023-02-01T00:00:31.049Z,99426.69
2023-02-01T00:02:57.765Z,99433.97
2023-02-01T00:05:24.431Z,99437.47
2023-02-01T00:07:51.190Z,99437.22
2023-02-01T00:10:18.683Z,99447.72
2023-02-01T00:12:45.520Z,99434.28
2023-02-01T00:15:12.548Z,99427.84
2023-02-01T00:17:39.340Z,99434.84
2023-02-01T00:20:06.634Z,99422.22
2023-02-01T00:22:33.412Z,99428.19
2023-02-01T00:25:00.133Z,99422.53
2023-02-01T00:27:26.946Z,99420.69
2023-02-01T00:29:56.133Z,99423.09
2023-02-01T00:32:23.084Z,99426.63
2023-02-01T00:34:49.839Z,99425.00
2023-02-01T00:37:16.604Z,99412.34
2023-02-01T00:39:43.255Z,99424.50
2023-02-01T00:42:10.880Z,99421.53
2023-02-01T00:44:37.703Z,99428.56
2023-02-01T00:47:04.439Z,99431.25
2023-02-01T00:49:31.151Z,99430.44
2023-02-01T00:51:58.030Z,99422.38
2023-02-01T00:54:25.001Z,99422.13
2023-02-01T00:56:51.781Z,99410.31
2023-02-01T00:59:18.463Z,99405.47
2023-02-01T01:01:45.264Z,99402.56
2023-02-01T01:04:12.081Z,99394.50
2023-02-01T01:06:38.839Z,99390.75
2023-02-01T01:09:08.030Z,99384.03
2023-02-01T01:11:38.844Z,99388.34
2023-02-01T01:14:07.057Z,99383.81
2023-02-01T01:16:34.711Z,99385.16
2023-02-01T01:19:02.227Z,99387.06
2023-02-01T01:21:29.665Z,99382.75
2023-02-01T01:23:56.770Z,99380.84
2023-02-01T01:26:26.500Z,99387.84
2023-02-01T01:28:55.882Z,99393.00
2023-02-01T01:31:22.969Z,99388.44
2023-02-01T01:33:54.537Z,99391.13
2023-02-01T01:36:22.095Z,99396.50
2023-02-01T01:38:49.023Z,99390.88
2023-02-01T01:41:19.388Z,99392.50
2023-02-01T01:43:57.209Z,99381.75
2023-02-01T01:46:27.077Z,99376.38
2023-02-01T01:49:16.834Z,99379.06
2023-02-01T01:51:48.371Z,99364.78
2023-02-01T01:54:19.319Z,99366.91
2023-02-01T01:56:56.416Z,99355.34
2023-02-01T01:59:25.022Z,99359.91
2023-02-01T02:01:53.151Z,99360.72
2023-02-01T02:04:20.825Z,99368.53
2023-02-01T02:07:08.968Z,99368.53
2023-02-01T02:09:35.890Z,99382.81
2023-02-01T02:12:02.621Z,99375.53
2023-02-01T02:14:30.725Z,99363.72
2023-02-01T02:17:27.808Z,99357.28
2023-02-01T02:20:25.641Z,99365.34
2023-02-01T02:23:30.366Z,99357.03
2023-02-01T02:26:00.015Z,99348.97
2023-02-01T02:28:54.283Z,99347.34
2023-02-01T02:31:33.909Z,99357.28
2023-02-01T02:34:24.002Z,99350.28
2023-02-01T02:37:04.262Z,99345.72
2023-02-01T02:39:44.740Z,99348.97
2023-02-01T02:42:36.851Z,99346.53
2023-02-01T02:45:50.647Z,99357.84
2023-02-01T02:48:25.956Z,99365.13
2023-02-01T02:51:20.559Z,99351.66
2023-02-01T02:54:13.735Z,99360.53
2023-02-01T02:57:00.041Z,99336.31
2023-02-01T02:59:47.660Z,99345.22
2023-02-01T03:02:34.195Z,99329.09
2023-02-01T03:05:01.125Z,99321.56
2023-02-01T03:07:49.666Z,99322.13
2023-02-01T03:10:39.361Z,99315.69
2023-02-01T03:13:25.118Z,99317.31
2023-02-01T03:15:59.647Z,99300.34
2023-02-01T03:18:38.282Z,99308.44
2023-02-01T03:21:11.564Z,99328.91
2023-02-01T03:23:41.811Z,99326.78
2023-02-01T03:26:12.682Z,99331.09
2023-02-01T03:28:46.691Z,99329.19
2023-02-01T03:31:15.696Z,99327.84
2023-02-01T03:33:42.975Z,99327.84
2023-02-01T03:36:20.221Z,99320.25
2023-02-01T03:38:59.405Z,99315.13
2023-02-01T03:41:43.014Z,99303.81
2023-02-01T03:44:20.253Z,99302.19
2023-02-01T03:47:05.313Z,99307.81
2023-02-01T03:49:42.312Z,99300.28
2023-02-01T03:52:14.595Z,99314.56
2023-02-01T03:54:42.604Z,99308.38
2023-02-01T03:57:14.330Z,99302.47
2023-02-01T03:59:45.133Z,99306.78
2023-02-01T04:02:11.994Z,99306.56
2023-02-01T04:04:38.755Z,99312.50
2023-02-01T04:07:05.600Z,99306.31
2023-02-01T04:09:32.464Z,99291.25
2023-02-01T04:11:59.163Z,99296.63
2023-02-01T04:14:25.909Z,99305.25
2023-02-01T04:16:52.708Z,99323.03
2023-02-01T04:19:19.535Z,99322.19
2023-02-01T04:21:46.300Z,99323.81
2023-02-01T04:24:13.006Z,99338.09
2023-02-01T04:26:39.808Z,99340.78
2023-02-01T04:29:06.580Z,99334.34
2023-02-01T04:31:33.445Z,99314.44
2023-02-01T04:34:00.435Z,99309.31
2023-02-01T04:36:27.216Z,99302.31
2023-02-01T04:38:53.898Z,99310.63
2023-02-01T04:41:21.671Z,99313.34
2023-02-01T04:43:49.728Z,99309.00
2023-02-01T04:46:16.692Z,99309.00
2023-02-01T04:48:43.550Z,99303.38
2023-02-01T04:51:11.337Z,99294.75
2023-02-01T04:53:38.013Z,99300.94
2023-02-01T04:56:05.124Z,99306.31
2023-02-01T04:58:31.791Z,99306.31
2023-02-01T05:00:58.665Z,99306.06
2023-02-01T05:03:25.408Z,99304.19
2023-02-01T05:05:54.469Z,99309.81
2023-02-01T05:08:23.289Z,99325.16
2023-02-01T05:10:50.193Z,99321.88
2023-02-01T05:13:35.520Z,99318.16
2023-02-01T05:16:02.808Z,99323.53
2023-02-01T05:18:29.567Z,99320.25
2023-02-01T05:20:56.589Z,99325.88
2023-02-01T05:23:23.372Z,99336.66
2023-02-01T05:25:50.121Z,99327.19
2023-02-01T05:28:16.840Z,99323.38
2023-02-01T05:30:43.842Z,99318.72
2023-02-01T05:33:10.627Z,99323.69
2023-02-01T05:35:37.280Z,99330.34
2023-02-01T05:38:03.933Z,99326.50
2023-02-01T05:40:30.620Z,99332.13
2023-02-01T05:42:57.377Z,99335.94
2023-02-01T05:45:24.184Z,99339.47
2023-02-01T05:47:50.974Z,99332.19
2023-02-01T05:50:17.871Z,99327.63
2023-02-01T05:52:44.626Z,99336.50
2023-02-01T05:55:11.606Z,99323.63
2023-02-01T05:57:38.274Z,99316.38
2023-02-01T06:00:05.501Z,99304.31
2023-02-01T06:02:32.279Z,99312.38
2023-02-01T06:04:58.971Z,99319.38
2023-02-01T06:07:27.138Z,99319.94
2023-02-01T06:09:54.757Z,99315.94
2023-02-01T06:12:21.564Z,99319.44
2023-02-01T06:14:48.299Z,99306.81
2023-02-01T06:17:15.002Z,99311.94
2023-02-01T06:19:41.934Z,99316.25
2023-02-01T06:22:08.621Z,99320.84
2023-02-01T06:24:35.472Z,99313.31
2023-02-01T06:27:02.194Z,99318.72
2023-02-01T06:29:28.840Z,99316.25
2023-02-01T06:31:55.714Z,99324.88
2023-02-01T06:34:23.906Z,99317.66
2023-02-01T06:36:50.853Z,99317.66
2023-02-01T06:39:17.593Z,99343.47
2023-02-01T06:41:48.405Z,99327.41
2023-02-01T06:44:15.718Z,99319.63
2023-02-01T06:46:42.528Z,99307.81
2023-02-01T06:49:09.609Z,99331.44
2023-02-01T06:51:36.614Z,99324.44
2023-02-01T06:54:03.373Z,99328.75
2023-02-01T06:56:32.141Z,99331.44
2023-02-01T06:58:58.924Z,99343.84
2023-02-01T07:01:25.671Z,99336.31
2023-02-01T07:03:52.380Z,99364.63
2023-02-01T07:06:19.391Z,99375.38
2023-02-01T07:08:46.298Z,99374.31
2023-02-01T07:11:14.923Z,99374.03
2023-02-01T07:13:41.764Z,99384.81
2023-02-01T07:16:12.864Z,99377.31
2023-02-01T07:18:39.694Z,99390.78
2023-02-01T07:21:06.997Z,99380.06
2023-02-01T07:23:33.822Z,99376.88
2023-02-01T07:26:04.200Z,99394.09
2023-02-01T07:28:33.392Z,99391.63
2023-02-01T07:31:08.323Z,99396.78
2023-02-01T07:33:35.445Z,99394.09
2023-02-01T07:36:05.207Z,99376.63
2023-02-01T07:38:32.001Z,99388.22
2023-02-01T07:41:04.419Z,99377.44
2023-02-01T07:43:31.867Z,99387.16
2023-02-01T07:45:58.928Z,99374.75
2023-02-01T07:48:26.931Z,99391.97
2023-02-01T07:51:01.611Z,99374.19
2023-02-01T07:53:30.304Z,99375.25
2023-02-01T07:55:57.248Z,99393.25
2023-02-01T07:58:25.104Z,99367.69
2023-02-01T08:01:10.310Z,99356.94
2023-02-01T08:03:37.449Z,99347.28
2023-02-01T08:06:05.359Z,99354.31
2023-02-01T08:08:32.046Z,99335.19
2023-02-01T08:10:59.868Z,99375.63
2023-02-01T08:13:26.720Z,99370.00
2023-02-01T08:15:53.657Z,99368.94
2023-02-01T08:18:21.753Z,99364.69
2023-02-01T08:20:48.696Z,99386.81
2023-02-01T08:23:15.598Z,99382.28
2023-02-01T08:25:42.320Z,99372.47
2023-02-01T08:28:09.097Z,99374.94
2023-02-01T08:30:39.225Z,99389.84
2023-02-01T08:33:07.739Z,99383.44
2023-02-01T08:35:43.746Z,99384.59
2023-02-01T08:38:11.683Z,99396.44
2023-02-01T08:40:38.385Z,99393.97
2023-02-01T08:43:05.376Z,99408.97
2023-02-01T08:45:32.996Z,99404.06
2023-02-01T08:47:59.981Z,99420.97
2023-02-01T08:50:27.165Z,99419.28
2023-02-01T08:52:54.516Z,99412.78
2023-02-01T08:55:21.727Z,99419.25
2023-02-01T08:57:48.772Z,99412.28
2023-02-01T09:00:17.708Z,99416.09
2023-02-01T09:02:44.927Z,99421.53
2023-02-01T09:05:12.437Z,99424.47
2023-02-01T09:07:39.690Z,99421.03
2023-02-01T09:10:07.296Z,99414.13
2023-02-01T09:12:35.306Z,99419.59
2023-02-01T09:15:02.428Z,99414.41
2023-02-01T09:17:30.243Z,99411.25
2023-02-01T09:19:56.976Z,99431.25
2023-02-01T09:22:24.043Z,99436.75
2023-02-01T09:24:50.998Z,99428.56
2023-02-01T09:27:17.673Z,99420.03
2023-02-01T09:29:44.483Z,99422.28
2023-02-01T09:32:11.640Z,99428.66
2023-02-01T09:34:38.488Z,99431.19
2023-02-01T09:37:05.171Z,99425.44
2023-02-01T09:39:32.041Z,99425.25
2023-02-01T09:42:21.658Z,99419.13
2023-02-01T09:45:14.678Z,99418.03
2023-02-01T09:47:48.584Z,99411.88
2023-02-01T09:50:23.665Z,99422.16
2023-02-01T09:52:59.285Z,99431.78
2023-02-01T09:55:48.085Z,99431.88
2023-02-01T09:58:25.882Z,99432.81
2023-02-01T10:00:58.878Z,99436.34
2023-02-01T10:03:30.368Z,99435.78
2023-02-01T10:06:00.103Z,99440.94
2023-02-01T10:08:56.122Z,99435.28
2023-02-01T10:11:49.129Z,99454.63
2023-02-01T10:14:26.506Z,99453.09
2023-02-01T10:17:15.115Z,99463.03
2023-02-01T10:19:53.895Z,99471.91
2023-02-01T10:22:55.752Z,99482.44
2023-02-01T10:25:33.990Z,99476.72
2023-02-01T10:28:02.484Z,99472.47
2023-02-01T10:30:38.325Z,99471.44
2023-02-01T10:33:19.138Z,99474.69
2023-02-01T10:35:47.354Z,99474.78
2023-02-01T10:38:29.963Z,99469.09
2023-02-01T10:41:03.964Z,99477.09
2023-02-01T10:43:31.877Z,99470.13
2023-02-01T10:45:58.623Z,99468.72
2023-02-01T10:48:25.475Z,99453.31
2023-02-01T10:51:00.376Z,99465.97
2023-02-01T10:53:40.621Z,99465.34
2023-02-01T10:56:09.447Z,99476.41
2023-02-01T10:58:43.565Z,99464.84
2023-02-01T11:01:17.756Z,99471.19
2023-02-01T11:04:01.610Z,99468.59
2023-02-01T11:06:33.938Z,99467.06
2023-02-01T11:09:11.366Z,99473.59
2023-02-01T11:11:55.298Z,99459.06
2023-02-01T11:14:25.100Z,99459.34
2023-02-01T11:17:13.254Z,99458.19
2023-02-01T11:19:41.118Z,99448.97
2023-02-01T11:22:07.895Z,99432.22
2023-02-01T11:24:39.150Z,99434.72
2023-02-01T11:27:16.026Z,99420.91
2023-02-01T11:29:52.375Z,99429.56
2023-02-01T11:32:21.830Z,99449.56
2023-02-01T11:34:52.829Z,99440.91
2023-02-01T11:37:32.456Z,99420.56
2023-02-01T11:40:01.424Z,99415.09
2023-02-01T11:42:29.711Z,99417.47
2023-02-01T11:45:20.139Z,99397.97
2023-02-01T11:47:47.392Z,99389.56
2023-02-01T11:50:30.946Z,99390.84
2023-02-01T11:53:25.282Z,99384.97
2023-02-01T11:56:19.769Z,99380.75
2023-02-01T11:58:52.591Z,99375.38
2023-02-01T12:01:44.223Z,99383.75
2023-02-01T12:04:34.594Z,99379.41
2023-02-01T12:07:14.850Z,99382.81
2023-02-01T12:10:05.293Z,99388.13
2023-02-01T12:12:42.557Z,99382.69
2023-02-01T12:15:34.422Z,99388.78
2023-02-01T12:18:45.825Z,99395.53
2023-02-01T12:21:43.483Z,99387.03
2023-02-01T12:24:32.689Z,99395.63
2023-02-01T12:27:28.663Z,99393.06
2023-02-01T12:30:10.053Z,99399.22
2023-02-01T12:32:49.595Z,99401.94
2023-02-01T12:35:28.575Z,99403.50
2023-02-01T12:38:21.749Z,99388.78
2023-02-01T12:41:41.884Z,99385.78
2023-02-01T12:44:27.253Z,99387.63
2023-02-01T12:46:56.589Z,99378.31
2023-02-01T12:49:53.824Z,99373.75
2023-02-01T12:52:44.371Z,99378.34
2023-02-01T12:55:21.430Z,99369.63
2023-02-01T12:57:54.718Z,99384.38
2023-02-01T13:00:37.113Z,99391.06
2023-02-01T13:03:22.869Z,99382.16
2023-02-01T13:05:56.164Z,99393.22
2023-02-01T13:08:36.816Z,99379.50
2023-02-01T13:11:38.567Z,99380.03
2023-02-01T13:14:26.976Z,99374.47
2023-02-01T13:17:01.872Z,99355.25
2023-02-01T13:19:38.022Z,99368.50
2023-02-01T13:22:12.870Z,99366.53
2023-02-01T13:24:46.864Z,99353.03
2023-02-01T13:27:15.355Z,99351.59
2023-02-01T13:30:12.861Z,99361.31
2023-02-01T13:33:54.692Z,99362.88
2023-02-01T13:36:42.656Z,99358.84
2023-02-01T13:39:29.127Z,99354.31
2023-02-01T13:42:00.688Z,99352.94
2023-02-01T13:44:46.011Z,99344.00
2023-02-01T13:47:34.679Z,99336.13
2023-02-01T13:50:13.106Z,99333.41
2023-02-01T13:52:52.886Z,99331.44
2023-02-01T13:55:28.131Z,99321.22
2023-02-01T13:58:12.214Z,99329.13
2023-02-01T14:00:41.053Z,99323.50
2023-02-01T14:03:13.027Z,99315.78
2023-02-01T14:05:39.869Z,99318.69
2023-02-01T14:08:10.623Z,99320.53
2023-02-01T14:10:51.470Z,99326.72
2023-02-01T14:13:40.503Z,99338.88
2023-02-01T14:16:07.350Z,99342.94
2023-02-01T14:18:37.380Z,99337.25
2023-02-01T14:21:25.719Z,99330.56
2023-02-01T14:23:55.355Z,99347.03
2023-02-01T14:26:26.870Z,99356.75
2023-02-01T14:29:24.400Z,99355.97
2023-02-01T14:32:13.688Z,99334.69
2023-02-01T14:34:53.640Z,99332.28
2023-02-01T14:37:25.172Z,99343.34
2023-02-01T14:40:20.062Z,99345.47
2023-02-01T14:42:49.792Z,99352.72
2023-02-01T14:45:19.846Z,99354.06
2023-02-01T14:47:48.620Z,99348.66
2023-02-01T14:50:27.491Z,99344.09
2023-02-01T14:53:09.630Z,99346.88
2023-02-01T14:55:41.002Z,99332.88
2023-02-01T14:58:19.781Z,99345.53
2023-02-01T15:00:56.994Z,99336.16
2023-02-01T15:03:24.090Z,99343.22
2023-02-01T15:05:58.900Z,99340.78
2023-02-01T15:08:31.011Z,99337.81
2023-02-01T15:11:02.023Z,99359.91
2023-02-01T15:13:29.710Z,99344.22
2023-02-01T15:16:10.990Z,99338.25
2023-02-01T15:18:38.146Z,99326.41
2023-02-01T15:21:27.463Z,99337.19
2023-02-01T15:24:12.024Z,99338.47
2023-02-01T15:26:39.036Z,99331.66
2023-02-01T15:29:05.993Z,99330.88
2023-02-01T15:31:40.043Z,99343.00
2023-02-01T15:34:06.998Z,99352.44
2023-02-01T15:36:34.720Z,99361.28
2023-02-01T15:39:30.686Z,99346.44
2023-02-01T15:42:02.863Z,99342.94
2023-02-01T15:44:43.693Z,99339.97
2023-02-01T15:47:26.796Z,99344.47
2023-02-01T15:49:59.699Z,99346.06
2023-02-01T15:52:40.029Z,99352.78
2023-02-01T15:55:18.349Z,99352.78
2023-02-01T15:57:45.611Z,99348.22
2023-02-01T16:00:29.396Z,99354.41
2023-02-01T16:03:01.906Z,99359.00
2023-02-01T16:05:39.297Z,99374.09
2023-02-01T16:08:13.035Z,99373.53
2023-02-01T16:10:43.039Z,99369.75
2023-02-01T16:13:10.541Z,99368.97
2023-02-01T16:15:37.559Z,99363.31
2023-02-01T16:18:05.115Z,99369.53
2023-02-01T16:20:31.941Z,99362.00
2023-02-01T16:22:58.840Z,99349.59
2023-02-01T16:25:26.086Z,99339.88
2023-02-01T16:27:53.062Z,99345.50
2023-02-01T16:30:25.140Z,99344.97
2023-02-01T16:33:00.313Z,99353.31
2023-02-01T16:35:36.417Z,99362.47
2023-02-01T16:38:09.608Z,99366.47
2023-02-01T16:40:36.410Z,99378.06
2023-02-01T16:43:04.488Z,99381.56
2023-02-01T16:45:31.259Z,99388.59
2023-02-01T16:47:58.382Z,99389.19
2023-02-01T16:50:26.629Z,99388.09
2023-02-01T16:52:54.338Z,99378.91
2023-02-01T16:55:23.578Z,99386.44
2023-02-01T16:57:50.991Z,99396.97
2023-02-01T17:00:24.573Z,99398.34
2023-02-01T17:02:53.409Z,99408.31
2023-02-01T17:05:20.393Z,99399.66
2023-02-01T17:07:47.468Z,99401.81
2023-02-01T17:10:34.158Z,99391.84
2023-02-01T17:13:02.014Z,99399.34
2023-02-01T17:15:34.817Z,99393.41
2023-02-01T17:18:02.758Z,99423.88
2023-02-01T17:20:33.019Z,99398.25
2023-02-01T17:23:00.108Z,99409.00
2023-02-01T17:25:29.931Z,99414.97
2023-02-01T17:27:56.642Z,99416.88
2023-02-01T17:30:23.449Z,99424.06
2023-02-01T17:32:50.454Z,99406.78
2023-02-01T17:35:22.353Z,99401.66
2023-02-01T17:37:50.676Z,99404.09
2023-02-01T17:40:17.977Z,99413.00
2023-02-01T17:42:44.792Z,99401.41
2023-02-01T17:45:33.269Z,99413.81
2023-02-01T17:48:00.151Z,99415.44
2023-02-01T17:50:30.607Z,99412.72
2023-02-01T17:52:57.610Z,99419.75
2023-02-01T17:55:27.054Z,99411.09
2023-02-01T17:57:54.074Z,99412.19
2023-02-01T18:00:22.000Z,99404.09
2023-02-01T18:02:48.853Z,99401.34
2023-02-01T18:05:27.286Z,99407.00
2023-02-01T18:07:54.124Z,99408.88
2023-02-01T18:10:20.978Z,99407.81
2023-02-01T18:12:47.790Z,99400.56
2023-02-01T18:15:23.323Z,99400.28
2023-02-01T18:17:50.523Z,99403.53
2023-02-01T18:20:20.294Z,99411.38
2023-02-01T18:22:50.622Z,99409.25
2023-02-01T18:25:21.236Z,99410.03
2023-02-01T18:27:49.312Z,99401.72
2023-02-01T18:30:16.690Z,99403.06
2023-02-01T18:32:44.410Z,99405.25
2023-02-01T18:35:21.499Z,99410.13
2023-02-01T18:37:50.398Z,99422.81
2023-02-01T18:40:23.196Z,99413.66
2023-02-01T18:42:50.218Z,99418.78
2023-02-01T18:45:49.470Z,99410.44
2023-02-01T18:48:19.384Z,99411.75
2023-02-01T18:50:46.325Z,99418.78
2023-02-01T18:53:21.127Z,99413.94
2023-02-01T18:55:48.403Z,99413.69
2023-02-01T18:58:16.840Z,99411.56
2023-02-01T19:00:45.387Z,99413.44
2023-02-01T19:03:13.670Z,99404.56
2023-02-01T19:05:40.996Z,99406.19
2023-02-01T19:08:08.715Z,99411.56
2023-02-01T19:10:38.561Z,99425.84
2023-02-01T19:13:05.512Z,99421.28
2023-02-01T19:15:34.840Z,99419.38
2023-02-01T19:18:01.696Z,99409.44
2023-02-01T19:20:28.443Z,99404.59
2023-02-01T19:22:55.175Z,99405.94
2023-02-01T19:25:25.247Z,99395.16
2023-02-01T19:27:53.074Z,99410.25
2023-02-01T19:30:21.086Z,99395.16
2023-02-01T19:32:48.524Z,99405.16
2023-02-01T19:35:19.426Z,99387.34
2023-02-01T19:37:48.115Z,99394.59
2023-02-01T19:40:18.119Z,99401.06
2023-02-01T19:42:45.400Z,99389.50
2023-02-01T19:45:13.046Z,99401.91
2023-02-01T19:47:39.833Z,99391.91
2023-02-01T19:50:07.906Z,99388.16
2023-02-01T19:52:35.769Z,99394.38
2023-02-01T19:55:03.759Z,99400.56
2023-02-01T19:57:31.279Z,99399.75
2023-02-01T19:59:58.011Z,99418.63
2023-02-01T20:02:25.729Z,99424.81
2023-02-01T20:04:52.505Z,99418.63
2023-02-01T20:07:19.181Z,99416.72
2023-02-01T20:09:45.970Z,99419.41
2023-02-01T20:12:12.797Z,99419.41
2023-02-01T20:14:40.042Z,99422.94
2023-02-01T20:17:07.718Z,99422.94
2023-02-01T20:19:34.613Z,99432.88
2023-02-01T20:22:01.516Z,99428.56
2023-02-01T20:24:28.345Z,99436.66
2023-02-01T20:26:56.105Z,99432.09
2023-02-01T20:29:23.104Z,99429.63
2023-02-01T20:31:50.016Z,99447.44
2023-02-01T20:34:17.211Z,99435.03
2023-02-01T20:36:44.261Z,99456.59
2023-02-01T20:39:11.046Z,99466.56
2023-02-01T20:41:38.481Z,99479.78
2023-02-01T20:44:05.448Z,99476.00
2023-02-01T20:46:32.463Z,99477.91
2023-02-01T20:48:59.302Z,99479.78
2023-02-01T20:51:26.023Z,99469.81
2023-02-01T20:53:54.839Z,99462.53
2023-02-01T20:56:22.365Z,99458.22
2023-02-01T20:58:49.674Z,99454.16
2023-02-01T21:01:16.638Z,99450.13
2023-02-01T21:03:43.644Z,99455.78
2023-02-01T21:06:12.604Z,99451.19
2023-02-01T21:08:41.408Z,99456.59
2023-02-01T21:11:12.416Z,99448.78
2023-02-01T21:13:50.626Z,99450.63
2023-02-01T21:16:21.564Z,99450.09
2023-02-01T21:18:52.392Z,99442.00
2023-02-01T21:21:19.698Z,99439.31
2023-02-01T21:23:47.658Z,99439.31
2023-02-01T21:26:17.625Z,99435.53
2023-02-01T21:28:45.179Z,99432.84
2023-02-01T21:31:13.921Z,99441.75
2023-02-01T21:33:41.080Z,99437.16
2023-02-01T21:36:10.013Z,99432.84
2023-02-01T21:38:37.516Z,99439.88
2023-02-01T21:41:23.123Z,99441.50
2023-02-01T21:43:49.932Z,99433.41
2023-02-01T21:46:18.276Z,99452.03
2023-02-01T21:49:04.523Z,99458.50
2023-02-01T21:51:32.072Z,99464.13
2023-02-01T21:53:58.719Z,99464.63
2023-02-01T21:56:25.873Z,99455.13
2023-02-01T21:58:52.977Z,99459.91
2023-02-01T22:01:19.667Z,99449.88
2023-02-01T22:03:46.894Z,99448.78
2023-02-01T22:06:37.993Z,99452.78
2023-02-01T22:09:05.796Z,99458.84
2023-02-01T22:11:33.137Z,99454.75
2023-02-01T22:14:00.288Z,99462.53
2023-02-01T22:16:27.186Z,99463.34
2023-02-01T22:18:54.276Z,99466.31
2023-02-01T22:21:22.682Z,99458.50
2023-02-01T22:23:54.580Z,99449.88
2023-02-01T22:26:22.542Z,99439.66
2023-02-01T22:28:52.490Z,99445.06
2023-02-01T22:31:20.218Z,99436.75
2023-02-01T22:33:49.088Z,99411.44
2023-02-01T22:36:18.042Z,99421.69
2023-02-01T22:38:46.237Z,99429.56
2023-02-01T22:41:13.131Z,99437.38
2023-02-01T22:43:40.398Z,99441.47
2023-02-01T22:46:27.900Z,99443.88
2023-02-01T22:48:54.579Z,99438.50
2023-02-01T22:51:23.967Z,99440.06
2023-02-01T22:53:56.929Z,99434.56
2023-02-01T22:56:26.330Z,99447.44
2023-02-01T22:58:55.345Z,99453.91
2023-02-01T23:01:22.141Z,99451.44
2023-02-01T23:03:48.829Z,99458.97
2023-02-01T23:06:18.303Z,99447.97
2023-02-01T23:08:46.327Z,99459.28
2023-02-01T23:11:13.833Z,99454.69
2023-02-01T23:13:40.823Z,99456.34
2023-02-01T23:16:12.019Z,99448.00
2023-02-01T23:18:40.229Z,99461.72
2023-02-01T23:21:18.890Z,99438.25
2023-02-01T23:23:51.211Z,99432.88
2023-02-01T23:26:18.628Z,99431.81
2023-02-01T23:28:45.504Z,99431.81
2023-02-01T23:31:14.107Z,99433.16
2023-02-01T23:33:41.491Z,99415.13
2023-02-01T23:36:15.792Z,99427.28
2023-02-01T23:38:46.661Z,99423.78
2023-02-01T23:41:15.417Z,99431.34
2023-02-01T23:43:57.835Z,99421.66
2023-02-01T23:46:34.557Z,99424.91
2023-02-01T23:49:02.857Z,99414.13
2023-02-01T23:51:30.354Z,99409.81
2023-02-01T23:53:57.775Z,99425.47
2023-02-01T23:56:33.495Z,99426.06
2023-02-01T23:59:02.471Z,99416.91
